| time (UTC) | temp C | wind direction | speed KPH | gust KPH | rain 1hr cm | rain 24hr cm | rain mn cm | humidity % | barometer mb |
| 20260510065908 | 12 | 188 | 14.5 | 32.2 | 0.00 | 0.15 | 0.00 | 77 | 1003.4 |
| 20260510065407 | 12 | 206 | 14.5 | 24.1 | 0.00 | 0.15 | 0.00 | 76 | 1003.3 |
| 20260510064907 | 12 | 210 | 11.3 | 25.7 | 0.00 | 0.15 | 0.00 | 77 | 1003.3 |
| 20260510064407 | 12 | 209 | 9.7 | 25.7 | 0.00 | 0.15 | 0.00 | 77 | 1003.3 |
| 20260510063908 | 12 | 213 | 8.0 | 19.3 | 0.00 | 0.15 | 0.00 | 77 | 1003.2 |
| 20260510063408 | 13 | 220 | 6.4 | 16.1 | 0.00 | 0.15 | 0.00 | 77 | 1003.0 |
| 20260510062907 | 13 | 229 | 9.7 | 24.1 | 0.00 | 0.15 | 0.00 | 77 | 1003.0 |
| 20260510062409 | 13 | 205 | 11.3 | 25.7 | 0.00 | 0.15 | 0.00 | 77 | 1002.8 |
| 20260510061908 | 13 | 214 | 11.3 | 24.1 | 0.00 | 0.15 | 0.00 | 77 | 1002.8 |
| 20260510060908 | 13 | 212 | 9.7 | 19.3 | 0.00 | 0.15 | 0.00 | 78 | 1002.6 |
| 20260510055908 | 13 | 230 | 8.0 | 22.5 | 0.00 | 0.15 | 0.00 | 77 | 1002.4 |
| 20260510055407 | 13 | 221 | 9.7 | 20.9 | 0.00 | 0.15 | 0.00 | 76 | 1002.3 |
| 20260510054907 | 13 | 229 | 8.0 | 24.1 | 0.00 | 0.15 | 0.00 | 75 | 1002.2 |
| 20260510054407 | 13 | 214 | 11.3 | 32.2 | 0.00 | 0.15 | 0.00 | 75 | 1002.2 |
| 20260510053907 | 13 | 209 | 8.0 | 24.1 | 0.00 | 0.15 | 0.00 | 75 | 1002.0 |
| 20260510053407 | 13 | 223 | 11.3 | 25.7 | 0.00 | 0.15 | 0.00 | 75 | 1001.9 |
| 20260510052907 | 14 | 197 | 8.0 | 24.1 | 0.00 | 0.15 | 0.00 | 75 | 1001.8 |
| 20260510052407 | 14 | 245 | 11.3 | 22.5 | 0.00 | 0.15 | 0.00 | 74 | 1001.8 |
| 20260510051907 | 14 | 213 | 9.7 | 22.5 | 0.00 | 0.15 | 0.00 | 74 | 1001.7 |
| 20260510051407 | 14 | 224 | 8.0 | 29.0 | 0.00 | 0.15 | 0.00 | 75 | 1001.6 |
| 20260510050907 | 15 | 253 | 4.8 | 19.3 | 0.00 | 0.15 | 0.00 | 75 | 1001.5 |
| 20260510050406 | 15 | 220 | 8.0 | 19.3 | 0.00 | 0.15 | 0.00 | 74 | 1001.5 |
| 20260510045907 | 15 | 241 | 8.0 | 22.5 | 0.00 | 0.15 | 0.00 | 74 | 1001.4 |
| 20260510045407 | 15 | 210 | 9.7 | 19.3 | 0.00 | 0.15 | 0.00 | 74 | 1001.3 |
| 20260510044406 | 15 | 330 | 6.4 | 19.3 | 0.00 | 0.15 | 0.00 | 74 | 1001.2 |
| 20260510042907 | 16 | 316 | 8.0 | 19.3 | 0.00 | 0.15 | 0.00 | 74 | 1001.0 |
| 20260510042407 | 16 | 292 | 8.0 | 20.9 | 0.00 | 0.15 | 0.00 | 74 | 1000.9 |
| 20260510041406 | 16 | 280 | 8.0 | 20.9 | 0.00 | 0.15 | 0.00 | 73 | 1000.8 |
| 20260510040907 | 16 | 223 | 9.7 | 20.9 | 0.00 | 0.15 | 0.00 | 74 | 1000.9 |
| 20260510040407 | 16 | 206 | 9.7 | 24.1 | 0.00 | 0.15 | 0.00 | 73 | 1000.8 |
| 20260510035907 | 16 | 208 | 12.9 | 27.4 | 0.00 | 0.15 | 0.00 | 72 | 1000.6 |
| 20260510035407 | 16 | 322 | 9.7 | 24.1 | 0.00 | 0.15 | 0.00 | 71 | 1000.6 |
| 20260510034407 | 17 | 333 | 8.0 | 25.7 | 0.00 | 0.15 | 0.00 | 72 | 1000.4 |
| 20260510033907 | 17 | 249 | 8.0 | 29.0 | 0.00 | 0.15 | 0.00 | 70 | 1000.3 |
| 20260510033407 | 17 | 279 | 9.7 | 22.5 | 0.00 | 0.15 | 0.00 | 72 | 1000.2 |
| 20260510032908 | 17 | 290 | 9.7 | 27.4 | 0.00 | 0.15 | 0.00 | 71 | 1000.3 |
| 20260510032407 | 17 | 298 | 11.3 | 24.1 | 0.00 | 0.15 | 0.00 | 72 | 1000.3 |
| 20260510030408 | 17 | 227 | 14.5 | 22.5 | 0.00 | 0.15 | 0.00 | 72 | 1000.2 |
| 20260510025907 | 17 | 307 | 9.7 | 20.9 | 0.00 | 0.15 | 0.00 | 72 | 1000.1 |
| 20260510025408 | 17 | 327 | 9.7 | 25.7 | 0.00 | 0.15 | 0.00 | 72 | 1000.1 |
| 20260510024907 | 17 | 275 | 11.3 | 38.6 | 0.00 | 0.15 | 0.00 | 72 | 1000.1 |
| 20260510024406 | 17 | 326 | 11.3 | 32.2 | 0.00 | 0.15 | 0.00 | 73 | 1000.1 |
| 20260510023907 | 17 | 324 | 8.0 | 29.0 | 0.00 | 0.15 | 0.00 | 73 | 1000.0 |
| 20260510023408 | 17 | 271 | 11.3 | 25.7 | 0.00 | 0.15 | 0.00 | 74 | 999.9 |
| 20260510022907 | 17 | 240 | 11.3 | 35.4 | 0.00 | 0.15 | 0.00 | 74 | 999.9 |
| 20260510022407 | 17 | 227 | 16.1 | 35.4 | 0.00 | 0.15 | 0.00 | 74 | 999.9 |
| 20260510021407 | 17 | 274 | 16.1 | 33.8 | 0.00 | 0.15 | 0.00 | 72 | 999.7 |
| 20260510020907 | 17 | 327 | 12.9 | 29.0 | 0.00 | 0.15 | 0.00 | 73 | 999.7 |
| 20260510020407 | 17 | 255 | 12.9 | 32.2 | 0.00 | 0.15 | 0.00 | 73 | 999.7 |
| 20260510015907 | 17 | 245 | 9.7 | 32.2 | 0.00 | 0.15 | 0.00 | 74 | 999.7 |
| 20260510015407 | 17 | 209 | 19.3 | 37.0 | 0.00 | 0.15 | 0.00 | 73 | 999.6 |
| 20260510014907 | 17 | 215 | 14.5 | 37.0 | 0.00 | 0.15 | 0.00 | 74 | 999.5 |
| 20260510014407 | 17 | 277 | 9.7 | 25.7 | 0.00 | 0.15 | 0.00 | 76 | 999.6 |
| 20260510013907 | 17 | 240 | 9.7 | 32.2 | 0.00 | 0.15 | 0.00 | 76 | 999.5 |
| 20260510013406 | 17 | 238 | 12.9 | 29.0 | 0.00 | 0.15 | 0.00 | 76 | 999.5 |
| 20260510012907 | 17 | 342 | 8.0 | 32.2 | 0.00 | 0.15 | 0.00 | 76 | 999.6 |
| 20260510012407 | 17 | 191 | 11.3 | 37.0 | 0.00 | 0.15 | 0.00 | 75 | 999.6 |
| 20260510011907 | 16 | 231 | 16.1 | 35.4 | 0.00 | 0.15 | 0.00 | 73 | 999.8 |
| 20260510010907 | 17 | 208 | 17.7 | 41.8 | 0.00 | 0.15 | 0.00 | 74 | 999.6 |
| 20260510010407 | 17 | 274 | 11.3 | 33.8 | 0.00 | 0.15 | 0.00 | 75 | 999.6 |
| 20260510005907 | 17 | 200 | 9.7 | 37.0 | 0.00 | 0.15 | 0.00 | 76 | 999.7 |
| 20260510004906 | 17 | 303 | 8.0 | 24.1 | 0.00 | 0.15 | 0.00 | 76 | 999.9 |
| 20260510004407 | 17 | 299 | 9.7 | 25.7 | 0.00 | 0.15 | 0.00 | 76 | 999.8 |
| 20260510003906 | 17 | 318 | 11.3 | 32.2 | 0.00 | 0.15 | 0.00 | 76 | 999.8 |
| 20260510002907 | 17 | 224 | 9.7 | 24.1 | 0.00 | 0.15 | 0.00 | 75 | 999.8 |
| 20260510002407 | 17 | 213 | 12.9 | 32.2 | 0.00 | 0.15 | 0.00 | 76 | 999.8 |
| 20260510001407 | 17 | 219 | 11.3 | 32.2 | 0.00 | 0.15 | 0.00 | 77 | 999.8 |
| 20260510000907 | 16 | 255 | 9.7 | 25.7 | 0.00 | 0.15 | 0.00 | 76 | 999.9 |
| 20260510000407 | 16 | 216 | 19.3 | 51.5 | 0.00 | 0.15 | 0.00 | 75 | 1000.0 |
| 20260509235907 | 17 | 257 | 12.9 | 25.7 | 0.00 | 0.15 | 0.00 | 77 | 1000.0 |
| 20260509235407 | 16 | 206 | 19.3 | 40.2 | 0.00 | 0.15 | 0.00 | 76 | 1000.0 |
| 20260509234407 | 16 | 226 | 12.9 | 29.0 | 0.00 | 0.15 | 0.00 | 78 | 1000.0 |
| 20260509233907 | 16 | 327 | 11.3 | 24.1 | 0.00 | 0.15 | 0.00 | 78 | 1000.2 |
| 20260509233407 | 16 | 342 | 14.5 | 32.2 | 0.00 | 0.15 | 0.00 | 77 | 1000.3 |
| 20260509232407 | 16 | 347 | 12.9 | 33.8 | 0.00 | 0.15 | 0.00 | 78 | 1000.3 |
| 20260509231907 | 16 | 342 | 9.7 | 33.8 | 0.00 | 0.15 | 0.00 | 79 | 1000.3 |
| 20260509231407 | 16 | 335 | 11.3 | 33.8 | 0.00 | 0.15 | 0.00 | 78 | 1000.4 |
| 20260509230907 | 16 | 322 | 11.3 | 27.4 | 0.00 | 0.15 | 0.00 | 78 | 1000.4 |
| 20260509230407 | 16 | 298 | 9.7 | 25.7 | 0.00 | 0.15 | 0.00 | 78 | 1000.4 |
| 20260509225907 | 16 | 280 | 9.7 | 27.4 | 0.00 | 0.15 | 0.00 | 79 | 1000.4 |
| 20260509225406 | 16 | 308 | 9.7 | 24.1 | 0.00 | 0.15 | 0.00 | 77 | 1000.4 |
| 20260509224907 | 16 | 298 | 9.7 | 27.4 | 0.00 | 0.15 | 0.00 | 77 | 1000.4 |
| 20260509224407 | 16 | 335 | 11.3 | 25.7 | 0.00 | 0.15 | 0.00 | 76 | 1000.3 |
| 20260509223907 | 16 | 307 | 4.8 | 20.9 | 0.00 | 0.15 | 0.00 | 77 | 1000.4 |
| 20260509223406 | 16 | 249 | 9.7 | 22.5 | 0.00 | 0.18 | 0.00 | 77 | 1000.4 |
| 20260509222906 | 16 | 332 | 6.4 | 25.7 | 0.00 | 0.18 | 0.00 | 77 | 1000.4 |
| 20260509222407 | 16 | 284 | 9.7 | 37.0 | 0.00 | 0.18 | 0.00 | 77 | 1000.4 |
| 20260509221907 | 16 | 320 | 14.5 | 38.6 | 0.00 | 0.18 | 0.00 | 77 | 1000.3 |
| 20260509221407 | 15 | 313 | 9.7 | 32.2 | 0.00 | 0.18 | 0.00 | 78 | 1000.3 |
| 20260509220407 | 15 | 330 | 11.3 | 29.0 | 0.00 | 0.18 | 0.00 | 78 | 1000.2 |
| 20260509215907 | 15 | 338 | 16.1 | 32.2 | 0.00 | 0.18 | 0.00 | 78 | 1000.1 |
| 20260509214907 | 15 | 287 | 9.7 | 24.1 | 0.00 | 0.20 | 0.00 | 79 | 1000.2 |
| 20260509214407 | 15 | 320 | 11.3 | 32.2 | 0.00 | 0.20 | 0.00 | 79 | 1000.2 |
| 20260509213907 | 15 | 345 | 9.7 | 29.0 | 0.00 | 0.20 | 0.00 | 79 | 1000.3 |
| 20260509213407 | 15 | 304 | 11.3 | 24.1 | 0.00 | 0.20 | 0.00 | 80 | 1000.3 |
| 20260509212907 | 15 | 267 | 8.0 | 25.7 | 0.00 | 0.20 | 0.00 | 80 | 1000.4 |
| 20260509212408 | 15 | 231 | 9.7 | 25.7 | 0.00 | 0.20 | 0.00 | 80 | 1000.5 |
| 20260509211906 | 15 | 242 | 8.0 | 24.1 | 0.00 | 0.23 | 0.00 | 80 | 1000.5 |
| 20260509211407 | 14 | 227 | 9.7 | 27.4 | 0.00 | 0.23 | 0.00 | 80 | 1000.3 |
| 20260509210908 | 14 | 320 | 8.0 | 24.1 | 0.00 | 0.23 | 0.00 | 80 | 1000.3 |
| 20260509205907 | 14 | 296 | 9.7 | 29.0 | 0.00 | 0.23 | 0.00 | 81 | 1000.2 |
| 20260509205409 | 13 | 295 | 9.7 | 25.7 | 0.00 | 0.23 | 0.00 | 81 | 1000.2 |
| 20260509203908 | 13 | 332 | 9.7 | 25.7 | 0.00 | 0.25 | 0.00 | 82 | 1000.0 |
| 20260509203409 | 13 | 265 | 8.0 | 20.9 | 0.00 | 0.25 | 0.00 | 83 | 1000.0 |
| 20260509202907 | 13 | 217 | 9.7 | 25.7 | 0.00 | 0.25 | 0.00 | 84 | 999.9 |
| 20260509202408 | 13 | 335 | 11.3 | 24.1 | 0.00 | 0.25 | 0.00 | 85 | 999.9 |
| 20260509201907 | 13 | 311 | 8.0 | 19.3 | 0.00 | 0.25 | 0.00 | 85 | 999.9 |
| 20260509201409 | 13 | 295 | 6.4 | 19.3 | 0.00 | 0.25 | 0.00 | 85 | 999.9 |
| 20260509200906 | 13 | 321 | 9.7 | 24.1 | 0.00 | 0.25 | 0.00 | 85 | 999.8 |
| 20260509195409 | 12 | 323 | 8.0 | 19.3 | 0.00 | 0.25 | 0.00 | 87 | 999.7 |
| 20260509194907 | 12 | 292 | 9.7 | 27.4 | 0.00 | 0.25 | 0.00 | 87 | 999.6 |
| 20260509194408 | 12 | 213 | 4.8 | 25.7 | 0.00 | 0.25 | 0.00 | 87 | 999.7 |
| 20260509193907 | 13 | 250 | 8.0 | 19.3 | 0.00 | 0.25 | 0.00 | 87 | 999.6 |
| 20260509193408 | 13 | 202 | 8.0 | 19.3 | 0.00 | 0.25 | 0.00 | 87 | 999.4 |
| 20260509192407 | 13 | 287 | 9.7 | 27.4 | 0.00 | 0.25 | 0.00 | 87 | 999.4 |
| 20260509191907 | 13 | 329 | 6.4 | 19.3 | 0.00 | 0.25 | 0.00 | 87 | 999.4 |
| 20260509191408 | 13 | 269 | 4.8 | 19.3 | 0.00 | 0.25 | 0.00 | 87 | 999.3 |
| 20260509190906 | 13 | 312 | 8.0 | 19.3 | 0.00 | 0.25 | 0.00 | 87 | 999.3 |
| 20260509190408 | 13 | 279 | 3.2 | 14.5 | 0.00 | 0.25 | 0.00 | 86 | 999.4 |
| 20260509185906 | 13 | 306 | 6.4 | 27.4 | 0.00 | 0.25 | 0.00 | 86 | 999.4 |
| 20260509185407 | 13 | 266 | 9.7 | 24.1 | 0.00 | 0.25 | 0.00 | 86 | 999.3 |
| 20260509184907 | 13 | 255 | 9.7 | 32.2 | 0.00 | 0.25 | 0.00 | 85 | 999.3 |
| 20260509183907 | 13 | 222 | 12.9 | 32.2 | 0.00 | 0.25 | 0.00 | 85 | 999.1 |
| 20260509183408 | 13 | 265 | 11.3 | 25.7 | 0.00 | 0.25 | 0.00 | 85 | 999.1 |
| 20260509182907 | 13 | 244 | 11.3 | 32.2 | 0.00 | 0.25 | 0.00 | 85 | 999.1 |
| 20260509182409 | 13 | 285 | 8.0 | 20.9 | 0.00 | 0.25 | 0.00 | 85 | 999.2 |
| 20260509181906 | 13 | 241 | 9.7 | 24.1 | 0.00 | 0.25 | 0.00 | 85 | 999.3 |
| 20260509181407 | 13 | 281 | 8.0 | 20.9 | 0.00 | 0.25 | 0.00 | 84 | 999.2 |
| 20260509180907 | 13 | 209 | 8.0 | 25.7 | 0.00 | 0.25 | 0.00 | 84 | 999.2 |
| 20260509180409 | 13 | 286 | 12.9 | 32.2 | 0.00 | 0.25 | 0.00 | 85 | 999.2 |
| 20260509175907 | 13 | 327 | 8.0 | 27.4 | 0.00 | 0.25 | 0.00 | 85 | 999.2 |
| 20260509175407 | 13 | 269 | 9.7 | 20.9 | 0.00 | 0.25 | 0.00 | 85 | 999.2 |
| 20260509174906 | 13 | 224 | 9.7 | 27.4 | 0.00 | 0.25 | 0.00 | 85 | 999.1 |
| 20260509174409 | 13 | 312 | 9.7 | 32.2 | 0.00 | 0.25 | 0.00 | 85 | 999.1 |
| 20260509173906 | 13 | 259 | 8.0 | 22.5 | 0.00 | 0.25 | 0.00 | 85 | 999.0 |
| 20260509173407 | 13 | 232 | 11.3 | 29.0 | 0.00 | 0.25 | 0.00 | 86 | 999.1 |
| 20260509172907 | 12 | 280 | 9.7 | 32.2 | 0.00 | 0.25 | 0.00 | 86 | 999.2 |
| 20260509172408 | 12 | 269 | 9.7 | 29.0 | 0.00 | 0.25 | 0.00 | 86 | 999.2 |
| 20260509171408 | 12 | 226 | 9.7 | 24.1 | 0.00 | 0.25 | 0.00 | 86 | 999.2 |
| 20260509170907 | 13 | 312 | 11.3 | 27.4 | 0.00 | 0.25 | 0.00 | 85 | 999.1 |
| 20260509170408 | 13 | 228 | 11.3 | 32.2 | 0.00 | 0.25 | 0.00 | 85 | 999.2 |
| 20260509165907 | 13 | 256 | 11.3 | 37.0 | 0.00 | 0.25 | 0.00 | 84 | 999.2 |
| 20260509165409 | 13 | 236 | 11.3 | 35.4 | 0.00 | 0.25 | 0.00 | 84 | 999.3 |
| 20260509164907 | 13 | 291 | 11.3 | 27.4 | 0.00 | 0.25 | 0.00 | 83 | 999.3 |
| 20260509164407 | 13 | 302 | 8.0 | 22.5 | 0.00 | 0.25 | 0.00 | 83 | 999.3 |
| 20260509163906 | 13 | 243 | 12.9 | 32.2 | 0.00 | 0.25 | 0.00 | 83 | 999.2 |
| 20260509163408 | 13 | 238 | 11.3 | 38.6 | 0.00 | 0.25 | 0.00 | 83 | 999.1 |
| 20260509162907 | 13 | 274 | 17.7 | 32.2 | 0.00 | 0.25 | 0.00 | 83 | 999.1 |
| 20260509162408 | 13 | 278 | 14.5 | 24.1 | 0.00 | 0.25 | 0.00 | 83 | 999.2 |
| 20260509161906 | 13 | 236 | 12.9 | 35.4 | 0.00 | 0.25 | 0.00 | 83 | 999.0 |
| 20260509161415 | 13 | 299 | 14.5 | 32.2 | 0.00 | 0.25 | 0.00 | 84 | 999.1 |
| 20260509160906 | 13 | 236 | 11.3 | 27.4 | 0.00 | 0.25 | 0.00 | 84 | 999.0 |
| 20260509155906 | 13 | 204 | 9.7 | 20.9 | 0.00 | 0.25 | 0.00 | 84 | 999.2 |
| 20260509155408 | 13 | 253 | 9.7 | 27.4 | 0.00 | 0.25 | 0.00 | 84 | 999.2 |
| 20260509154907 | 12 | 214 | 11.3 | 32.2 | 0.00 | 0.25 | 0.00 | 84 | 999.2 |
| 20260509153408 | 12 | 223 | 11.3 | 27.4 | 0.00 | 0.25 | 0.00 | 84 | 999.2 |
| 20260509152907 | 12 | 301 | 9.7 | 24.1 | 0.00 | 0.28 | 0.00 | 84 | 999.4 |
| 20260509151906 | 12 | 209 | 4.8 | 16.1 | 0.00 | 0.28 | 0.00 | 83 | 999.7 |
| 20260509151408 | 12 | 309 | 6.4 | 19.3 | 0.00 | 0.28 | 0.00 | 83 | 999.7 |
| 20260509150907 | 12 | 285 | 11.3 | 32.2 | 0.00 | 0.28 | 0.00 | 83 | 999.7 |
| 20260509150408 | 12 | 223 | 12.9 | 29.0 | 0.00 | 0.28 | 0.00 | 82 | 999.6 |
| 20260509145907 | 12 | 241 | 9.7 | 40.2 | 0.00 | 0.28 | 0.00 | 82 | 999.6 |
| 20260509145408 | 12 | 225 | 12.9 | 32.2 | 0.00 | 0.28 | 0.00 | 83 | 999.6 |
| 20260509144409 | 12 | 175 | 8.0 | 22.5 | 0.00 | 0.28 | 0.00 | 83 | 999.7 |
| 20260509143907 | 12 | 289 | 9.7 | 22.5 | 0.00 | 0.28 | 0.00 | 83 | 999.7 |
| 20260509142906 | 12 | 323 | 8.0 | 19.3 | 0.00 | 0.28 | 0.00 | 84 | 999.7 |
| 20260509142409 | 12 | 287 | 8.0 | 19.3 | 0.00 | 0.28 | 0.00 | 84 | 999.7 |
| 20260509141907 | 12 | 349 | 8.0 | 27.4 | 0.00 | 0.28 | 0.00 | 84 | 999.8 |
| 20260509141408 | 12 | 338 | 8.0 | 22.5 | 0.00 | 0.28 | 0.00 | 84 | 999.8 |
| 20260509140408 | 12 | 346 | 9.7 | 20.9 | 0.00 | 0.28 | 0.00 | 84 | 999.8 |
| 20260509135907 | 12 | 212 | 8.0 | 19.3 | 0.00 | 0.28 | 0.00 | 84 | 1000.0 |
| 20260509135407 | 12 | 223 | 8.0 | 20.9 | 0.00 | 0.28 | 0.00 | 83 | 1000.0 |
| 20260509134408 | 12 | 220 | 8.0 | 19.3 | 0.00 | 0.28 | 0.00 | 83 | 1000.0 |
| 20260509133907 | 12 | 220 | 8.0 | 20.9 | 0.00 | 0.28 | 0.00 | 83 | 1000.0 |
| 20260509133408 | 12 | 229 | 8.0 | 24.1 | 0.00 | 0.28 | 0.00 | 83 | 999.9 |
| 20260509132907 | 12 | 303 | 8.0 | 22.5 | 0.00 | 0.28 | 0.00 | 84 | 1000.0 |
| 20260509132409 | 12 | 269 | 8.0 | 19.3 | 0.00 | 0.28 | 0.00 | 83 | 1000.2 |
| 20260509131906 | 12 | 316 | 4.8 | 19.3 | 0.00 | 0.28 | 0.00 | 83 | 1000.1 |
| 20260509131408 | 12 | 255 | 8.0 | 20.9 | 0.00 | 0.28 | 0.00 | 83 | 1000.2 |
| 20260509130907 | 12 | 313 | 8.0 | 33.8 | 0.00 | 0.28 | 0.00 | 84 | 1000.2 |
| 20260509130409 | 12 | 312 | 8.0 | 20.9 | 0.00 | 0.28 | 0.00 | 84 | 1000.2 |
| 20260509125907 | 12 | 286 | 4.8 | 20.9 | 0.15 | 0.28 | 0.00 | 84 | 1000.2 |
| 20260509125408 | 12 | 206 | 11.3 | 24.1 | 0.15 | 0.28 | 0.00 | 84 | 1000.2 |
| 20260509124907 | 12 | 229 | 4.8 | 19.3 | 0.15 | 0.28 | 0.00 | 84 | 1000.1 |
| 20260509124409 | 12 | 268 | 4.8 | 27.4 | 0.15 | 0.28 | 0.00 | 84 | 1000.1 |
| 20260509123907 | 12 | 281 | 11.3 | 27.4 | 0.15 | 0.28 | 0.00 | 84 | 1000.0 |
| 20260509123408 | 12 | 283 | 9.7 | 22.5 | 0.15 | 0.28 | 0.00 | 84 | 1000.1 |
| 20260509122906 | 12 | 256 | 4.8 | 19.3 | 0.15 | 0.28 | 0.00 | 85 | 1000.3 |
| 20260509122409 | 12 | 228 | 9.7 | 19.3 | 0.15 | 0.28 | 0.00 | 85 | 1000.4 |
| 20260509121907 | 12 | 221 | 8.0 | 24.1 | 0.15 | 0.28 | 0.00 | 85 | 1000.4 |
| 20260509121408 | 12 | 270 | 8.0 | 25.7 | 0.15 | 0.28 | 0.00 | 85 | 1000.4 |
| 20260509120907 | 12 | 206 | 11.3 | 25.7 | 0.15 | 0.28 | 0.00 | 85 | 1000.5 |
| 20260509120408 | 12 | 213 | 9.7 | 22.5 | 0.15 | 0.28 | 0.00 | 84 | 1000.5 |
| 20260509115907 | 12 | 221 | 11.3 | 29.0 | 0.00 | 2.77 | 0.15 | 84 | 1000.5 |
| 20260509114907 | 12 | 190 | 11.3 | 33.8 | 0.00 | 2.77 | 0.15 | 83 | 1000.4 |
| 20260509114409 | 12 | 208 | 9.7 | 29.0 | 0.00 | 2.77 | 0.15 | 83 | 1000.5 |
| 20260509113907 | 12 | 222 | 11.3 | 19.3 | 0.00 | 2.77 | 0.15 | 83 | 1000.4 |
| 20260509113408 | 12 | 233 | 8.0 | 29.0 | 0.00 | 2.77 | 0.15 | 83 | 1000.5 |
| 20260509112907 | 12 | 214 | 11.3 | 24.1 | 0.00 | 2.77 | 0.15 | 82 | 1000.4 |
| 20260509112407 | 12 | 216 | 9.7 | 24.1 | 0.00 | 2.77 | 0.15 | 82 | 1000.4 |
| 20260509111907 | 12 | 217 | 9.7 | 20.9 | 0.00 | 2.77 | 0.15 | 82 | 1000.5 |
| 20260509111408 | 12 | 205 | 9.7 | 20.9 | 0.00 | 2.77 | 0.15 | 82 | 1000.4 |
| 20260509110407 | 12 | 203 | 12.9 | 32.2 | 0.00 | 2.77 | 0.15 | 81 | 1000.4 |
| 20260509105907 | 12 | 205 | 14.5 | 27.4 | 0.00 | 2.77 | 0.15 | 81 | 1000.4 |
| 20260509105408 | 12 | 210 | 12.9 | 25.7 | 0.00 | 2.77 | 0.15 | 81 | 1000.3 |
| 20260509104907 | 12 | 224 | 12.9 | 29.0 | 0.00 | 2.77 | 0.15 | 81 | 1000.3 |
| 20260509103907 | 12 | 215 | 9.7 | 27.4 | 0.00 | 2.77 | 0.15 | 82 | 1000.4 |
| 20260509102907 | 12 | 282 | 6.4 | 19.3 | 0.00 | 2.77 | 0.15 | 83 | 1000.6 |
| 20260509102407 | 12 | 234 | 8.0 | 22.5 | 0.00 | 2.77 | 0.15 | 83 | 1000.6 |
| 20260509101907 | 12 | 217 | 8.0 | 22.5 | 0.00 | 2.77 | 0.15 | 84 | 1000.7 |
| 20260509101408 | 12 | 239 | 8.0 | 16.1 | 0.00 | 2.77 | 0.15 | 85 | 1000.7 |
| 20260509100906 | 12 | 216 | 8.0 | 16.1 | 0.00 | 2.77 | 0.15 | 85 | 1000.7 |
| 20260509100407 | 12 | 312 | 9.7 | 20.9 | 0.00 | 2.77 | 0.15 | 86 | 1000.8 |
| 20260509095907 | 11 | 229 | 4.8 | 16.1 | 0.00 | 2.77 | 0.15 | 86 | 1000.8 |
| 20260509095407 | 11 | 253 | 6.4 | 19.3 | 0.00 | 2.77 | 0.15 | 86 | 1000.8 |
| 20260509094907 | 11 | 281 | 4.8 | 16.1 | 0.00 | 2.77 | 0.15 | 87 | 1000.7 |
| 20260509094407 | 11 | 341 | 4.8 | 19.3 | 0.00 | 2.77 | 0.15 | 87 | 1000.6 |
| 20260509093908 | 11 | 263 | 8.0 | 24.1 | 0.00 | 2.77 | 0.15 | 87 | 1000.7 |
| 20260509093408 | 11 | 232 | 6.4 | 16.1 | 0.00 | 2.77 | 0.15 | 87 | 1000.7 |
| 20260509092908 | 11 | 291 | 4.8 | 12.9 | 0.00 | 2.77 | 0.15 | 87 | 1000.7 |
| 20260509092408 | 11 | 284 | 6.4 | 14.5 | 0.00 | 2.77 | 0.15 | 87 | 1000.7 |
| 20260509091906 | 11 | 256 | 6.4 | 19.3 | 0.00 | 2.77 | 0.15 | 87 | 1000.6 |
| 20260509091408 | 11 | 262 | 4.8 | 11.3 | 0.00 | 2.77 | 0.15 | 87 | 1000.7 |
| 20260509090907 | 11 | 270 | 4.8 | 14.5 | 0.00 | 2.77 | 0.15 | 87 | 1000.7 |
| 20260509090408 | 12 | 294 | 3.2 | 9.7 | 0.00 | 2.77 | 0.15 | 87 | 1000.7 |
| 20260509085908 | 12 | 298 | 3.2 | 12.9 | 0.00 | 2.77 | 0.15 | 87 | 1000.7 |
| 20260509085408 | 12 | 252 | 3.2 | 16.1 | 0.00 | 2.77 | 0.15 | 87 | 1000.7 |
| 20260509084907 | 12 | 203 | 4.8 | 22.5 | 0.00 | 2.77 | 0.15 | 86 | 1000.7 |
| 20260509084406 | 12 | 218 | 8.0 | 19.3 | 0.00 | 2.77 | 0.15 | 86 | 1000.7 |
| 20260509083906 | 12 | 204 | 11.3 | 24.1 | 0.00 | 2.77 | 0.15 | 86 | 1000.6 |
| 20260509082907 | 12 | 315 | 8.0 | 20.9 | 0.00 | 2.77 | 0.15 | 84 | 1000.4 |
| 20260509082406 | 12 | 219 | 8.0 | 25.7 | 0.00 | 2.77 | 0.15 | 84 | 1000.3 |
| 20260509081907 | 12 | 244 | 6.4 | 19.3 | 0.00 | 2.77 | 0.15 | 84 | 1000.3 |
| 20260509080907 | 12 | 275 | 4.8 | 14.5 | 0.00 | 2.77 | 0.15 | 84 | 1000.4 |
| 20260509080406 | 12 | 228 | 9.7 | 29.0 | 0.00 | 2.77 | 0.15 | 83 | 1000.5 |
| 20260509075406 | 12 | 252 | 8.0 | 19.3 | 0.00 | 2.77 | 0.15 | 83 | 1000.5 |
| 20260509074407 | 12 | 324 | 6.4 | 19.3 | 0.00 | 2.77 | 0.15 | 84 | 1000.4 |
| 20260509073907 | 12 | 227 | 8.0 | 20.9 | 0.00 | 2.77 | 0.15 | 84 | 1000.4 |
| 20260509073407 | 12 | 241 | 8.0 | 19.3 | 0.00 | 2.77 | 0.15 | 84 | 1000.3 |
| 20260509072907 | 12 | 296 | 9.7 | 19.3 | 0.00 | 2.77 | 0.15 | 84 | 1000.3 |
| 20260509072407 | 13 | 236 | 11.3 | 29.0 | 0.00 | 2.77 | 0.15 | 83 | 1000.2 |
| 20260509071406 | 13 | 316 | 12.9 | 24.1 | 0.00 | 2.77 | 0.15 | 82 | 1000.0 |
| 20260509070906 | 13 | 248 | 8.0 | 32.2 | 0.00 | 2.77 | 0.15 | 81 | 999.9 |